createdAt,value
2024-05-09T00:00:18.159Z,19.75
2024-05-09T00:01:10.874Z,19.73
2024-05-09T00:02:10.957Z,19.70
2024-05-09T00:03:11.923Z,19.64
2024-05-09T00:04:10.904Z,19.75
2024-05-09T00:05:11.154Z,19.73
2024-05-09T00:06:10.943Z,19.73
2024-05-09T00:07:10.713Z,19.68
2024-05-09T00:08:11.063Z,19.72
2024-05-09T00:09:10.702Z,19.66
2024-05-09T00:10:18.263Z,19.70
2024-05-09T00:11:10.909Z,19.70
2024-05-09T00:12:10.822Z,19.75
2024-05-09T00:13:11.248Z,19.75
2024-05-09T00:14:10.778Z,19.73
2024-05-09T00:15:10.627Z,19.75
2024-05-09T00:16:10.657Z,19.88
2024-05-09T00:17:10.652Z,19.86
2024-05-09T00:18:10.693Z,19.94
2024-05-09T00:19:10.747Z,19.84
2024-05-09T00:20:17.588Z,19.79
2024-05-09T00:21:10.615Z,19.73
2024-05-09T00:22:10.577Z,19.68
2024-05-09T00:23:11.784Z,19.62
2024-05-09T00:24:10.543Z,19.59
2024-05-09T00:25:10.518Z,19.48
2024-05-09T00:26:10.539Z,19.40
2024-05-09T00:27:12.672Z,19.33
2024-05-09T00:28:10.495Z,19.32
2024-05-09T00:29:10.583Z,19.32
2024-05-09T00:30:17.427Z,19.33
2024-05-09T00:31:10.459Z,19.30
2024-05-09T00:32:10.644Z,19.37
2024-05-09T00:33:11.525Z,19.30
2024-05-09T00:34:10.473Z,19.33
2024-05-09T00:35:10.421Z,19.48
2024-05-09T00:36:10.406Z,19.49
2024-05-09T00:37:10.386Z,19.59
2024-05-09T00:38:10.475Z,19.55
2024-05-09T00:39:10.404Z,19.57
2024-05-09T00:40:18.286Z,19.55
2024-05-09T00:41:10.435Z,19.51
2024-05-09T00:42:10.315Z,19.46
2024-05-09T00:43:10.686Z,19.48
2024-05-09T00:44:10.354Z,19.48
2024-05-09T00:45:10.322Z,19.40
2024-05-09T00:46:10.301Z,19.37
2024-05-09T00:47:10.385Z,19.40
2024-05-09T00:48:11.599Z,19.46
2024-05-09T00:49:10.374Z,19.49
2024-05-09T00:50:15.946Z,19.62
2024-05-09T00:51:10.420Z,19.70
2024-05-09T00:52:10.241Z,19.70
2024-05-09T00:53:10.334Z,19.73
2024-05-09T00:54:10.225Z,19.70
2024-05-09T00:55:10.264Z,19.62
2024-05-09T00:56:10.215Z,19.59
2024-05-09T00:57:10.220Z,19.62
2024-05-09T00:58:10.192Z,19.62
2024-05-09T00:59:10.254Z,19.48
2024-05-09T01:00:22.320Z,19.57
2024-05-09T01:01:10.236Z,19.53
2024-05-09T01:02:10.249Z,19.44
2024-05-09T01:03:12.393Z,19.32
2024-05-09T01:04:10.267Z,19.23
2024-05-09T01:05:10.279Z,19.23
2024-05-09T01:06:10.181Z,19.19
2024-05-09T01:07:10.078Z,19.12
2024-05-09T01:08:10.588Z,18.98
2024-05-09T01:09:10.068Z,18.88
2024-05-09T01:10:14.336Z,18.83
2024-05-09T01:11:10.172Z,18.71
2024-05-09T01:12:10.230Z,18.59
2024-05-09T01:13:10.062Z,18.53
2024-05-09T01:14:10.049Z,18.50
2024-05-09T01:15:09.992Z,18.41
2024-05-09T01:16:10.043Z,18.27
2024-05-09T01:17:09.999Z,18.14
2024-05-09T01:18:11.005Z,18.02
2024-05-09T01:19:10.105Z,17.96
2024-05-09T01:20:12.959Z,17.92
2024-05-09T01:21:10.063Z,17.91
2024-05-09T01:22:09.952Z,17.82
2024-05-09T01:23:10.395Z,17.79
2024-05-09T01:24:09.903Z,17.86
2024-05-09T01:25:09.901Z,17.94
2024-05-09T01:26:09.937Z,18.02
2024-05-09T01:27:09.882Z,18.00
2024-05-09T01:28:09.887Z,18.11
2024-05-09T01:29:09.909Z,18.27
2024-05-09T01:30:16.949Z,18.35
2024-05-09T01:31:09.850Z,18.46
2024-05-09T01:32:09.973Z,18.55
2024-05-09T01:33:11.614Z,18.68
2024-05-09T01:34:09.851Z,18.84
2024-05-09T01:35:09.829Z,18.91
2024-05-09T01:36:09.784Z,19.05
2024-05-09T01:37:09.775Z,19.26
2024-05-09T01:38:09.999Z,19.42
2024-05-09T01:39:09.779Z,19.59
2024-05-09T01:40:14.900Z,19.77
2024-05-09T01:41:09.758Z,19.88
2024-05-09T01:42:09.722Z,20.07
2024-05-09T01:43:10.973Z,20.15
2024-05-09T01:44:09.799Z,20.23
2024-05-09T01:45:09.686Z,20.35
2024-05-09T01:46:09.685Z,20.35
2024-05-09T01:47:09.727Z,20.35
2024-05-09T01:48:10.730Z,20.31
2024-05-09T01:49:09.773Z,20.39
2024-05-09T01:50:11.060Z,20.43
2024-05-09T01:51:09.808Z,20.37
2024-05-09T01:52:09.617Z,20.39
2024-05-09T01:53:09.983Z,20.41
2024-05-09T01:54:09.629Z,20.35
2024-05-09T01:55:09.587Z,20.39
2024-05-09T01:56:09.643Z,20.37
2024-05-09T01:57:09.559Z,20.31
2024-05-09T01:58:09.877Z,20.25
2024-05-09T01:59:09.634Z,20.03
2024-05-09T02:00:10.413Z,19.84
2024-05-09T02:01:09.687Z,19.64
2024-05-09T02:02:09.655Z,19.44
2024-05-09T02:03:10.172Z,19.30
2024-05-09T02:04:09.579Z,19.16
2024-05-09T02:05:09.740Z,19.03
2024-05-09T02:06:09.622Z,18.97
2024-05-09T02:07:09.460Z,18.78
2024-05-09T02:08:09.502Z,18.74
2024-05-09T02:09:09.424Z,18.59
2024-05-09T02:10:16.200Z,18.63
2024-05-09T02:11:09.601Z,18.59
2024-05-09T02:12:09.588Z,18.59
2024-05-09T02:13:09.454Z,18.61
2024-05-09T02:14:09.413Z,18.45
2024-05-09T02:15:09.402Z,18.29
2024-05-09T02:16:09.394Z,18.25
2024-05-09T02:17:09.460Z,18.22
2024-05-09T02:18:09.525Z,18.30
2024-05-09T02:19:09.442Z,18.35
2024-05-09T02:20:13.254Z,18.33
2024-05-09T02:21:09.502Z,18.38
2024-05-09T02:22:09.334Z,18.40
2024-05-09T02:23:09.764Z,18.32
2024-05-09T02:24:09.275Z,18.29
2024-05-09T02:25:09.318Z,18.29
2024-05-09T02:26:09.299Z,18.24
2024-05-09T02:27:09.363Z,18.22
2024-05-09T02:28:09.227Z,18.19
2024-05-09T02:29:09.321Z,18.16
2024-05-09T02:30:18.528Z,18.16
2024-05-09T02:31:09.202Z,18.08
2024-05-09T02:32:09.230Z,18.05
2024-05-09T02:33:10.956Z,17.94
2024-05-09T02:34:09.279Z,17.91
2024-05-09T02:35:09.239Z,17.91
2024-05-09T02:36:09.179Z,17.91
2024-05-09T02:37:09.137Z,18.00
2024-05-09T02:38:09.220Z,18.03
2024-05-09T02:39:09.157Z,18.08
2024-05-09T02:40:11.639Z,18.16
2024-05-09T02:41:09.149Z,18.19
2024-05-09T02:42:09.099Z,18.24
2024-05-09T02:43:10.824Z,18.19
2024-05-09T02:44:09.103Z,18.24
2024-05-09T02:45:09.110Z,18.21
2024-05-09T02:46:09.058Z,18.16
2024-05-09T02:47:09.176Z,18.14
2024-05-09T02:48:09.146Z,18.11
2024-05-09T02:49:09.185Z,18.10
2024-05-09T02:50:13.226Z,18.07
2024-05-09T02:51:09.086Z,18.00
2024-05-09T02:52:08.997Z,17.94
2024-05-09T02:53:09.853Z,17.85
2024-05-09T02:54:08.961Z,17.86
2024-05-09T02:55:08.998Z,17.76
2024-05-09T02:56:09.047Z,17.70
2024-05-09T02:57:08.946Z,17.55
2024-05-09T02:58:08.951Z,17.46
2024-05-09T02:59:09.039Z,17.38
2024-05-09T03:00:15.187Z,17.29
2024-05-09T03:01:09.005Z,17.20
2024-05-09T03:02:08.978Z,17.17
2024-05-09T03:03:10.601Z,17.15
2024-05-09T03:04:09.060Z,17.09
2024-05-09T03:05:08.940Z,17.06
2024-05-09T03:06:08.810Z,17.08
2024-05-09T03:07:08.878Z,16.98
2024-05-09T03:08:09.057Z,17.09
2024-05-09T03:09:08.823Z,17.04
2024-05-09T03:10:18.159Z,17.01
2024-05-09T03:11:08.948Z,16.98
2024-05-09T03:12:08.907Z,16.97
2024-05-09T03:13:09.147Z,16.95
2024-05-09T03:14:08.783Z,16.98
2024-05-09T03:15:08.761Z,16.99
2024-05-09T03:16:08.729Z,16.99
2024-05-09T03:17:08.850Z,17.02
2024-05-09T03:18:08.975Z,17.01
2024-05-09T03:19:08.895Z,17.04
2024-05-09T03:20:17.286Z,16.97
2024-05-09T03:21:08.921Z,16.95
2024-05-09T03:22:08.710Z,16.82
2024-05-09T03:23:09.971Z,16.68
2024-05-09T03:24:08.679Z,16.60
2024-05-09T03:25:08.667Z,16.47
2024-05-09T03:26:08.705Z,16.37
2024-05-09T03:27:08.631Z,16.24
2024-05-09T03:28:08.644Z,16.25
2024-05-09T03:29:08.670Z,16.19
2024-05-09T03:30:09.972Z,16.29
2024-05-09T03:31:08.582Z,16.27
2024-05-09T03:32:08.670Z,16.32
2024-05-09T03:33:08.753Z,16.29
2024-05-09T03:34:08.616Z,16.36
2024-05-09T03:35:08.638Z,16.27
2024-05-09T03:36:11.199Z,16.28
2024-05-09T03:37:08.512Z,16.29
2024-05-09T03:38:08.676Z,16.27
2024-05-09T03:39:08.509Z,16.17
2024-05-09T03:40:14.483Z,16.17
2024-05-09T03:41:08.551Z,16.14
2024-05-09T03:42:08.496Z,16.16
2024-05-09T03:43:08.465Z,16.14
2024-05-09T03:44:08.508Z,16.13
2024-05-09T03:45:08.435Z,16.08
2024-05-09T03:46:08.460Z,16.01
2024-05-09T03:47:08.482Z,15.95
2024-05-09T03:48:09.033Z,15.92
2024-05-09T03:49:08.501Z,15.90
2024-05-09T03:50:15.147Z,15.84
2024-05-09T03:51:08.706Z,15.77
2024-05-09T03:52:08.357Z,15.80
2024-05-09T03:53:08.395Z,15.71
2024-05-09T03:54:08.340Z,15.72
2024-05-09T03:55:08.364Z,15.75
2024-05-09T03:56:08.339Z,15.77
2024-05-09T03:57:08.389Z,15.85
2024-05-09T03:58:08.534Z,15.99
2024-05-09T03:59:08.370Z,16.02
2024-05-09T04:00:14.856Z,15.99
2024-05-09T04:01:08.305Z,15.95
2024-05-09T04:02:08.376Z,16.03
2024-05-09T04:03:11.011Z,15.99
2024-05-09T04:04:08.252Z,15.95
2024-05-09T04:05:08.256Z,15.81
2024-05-09T04:06:08.215Z,15.86
2024-05-09T04:07:08.247Z,15.89
2024-05-09T04:08:08.254Z,15.87
2024-05-09T04:09:08.185Z,15.90
2024-05-09T04:10:11.260Z,15.89
2024-05-09T04:11:08.249Z,15.92
2024-05-09T04:12:08.295Z,15.90
2024-05-09T04:13:08.173Z,15.91
2024-05-09T04:14:08.173Z,15.95
2024-05-09T04:15:11.197Z,15.89
2024-05-09T04:16:08.119Z,15.84
2024-05-09T04:17:08.173Z,15.80
2024-05-09T04:18:08.392Z,15.73
2024-05-09T04:19:08.137Z,15.68
2024-05-09T04:20:10.570Z,15.71
2024-05-09T04:21:08.055Z,15.62
2024-05-09T04:22:08.045Z,15.58
2024-05-09T04:23:09.036Z,15.52
2024-05-09T04:24:08.021Z,15.47
2024-05-09T04:25:08.083Z,15.42
2024-05-09T04:26:08.032Z,15.35
2024-05-09T04:27:07.990Z,15.22
2024-05-09T04:28:07.976Z,15.25
2024-05-09T04:29:08.005Z,15.20
2024-05-09T04:30:12.456Z,15.20
2024-05-09T04:31:07.996Z,15.13
2024-05-09T04:32:08.136Z,15.07
2024-05-09T04:33:10.118Z,15.14
2024-05-09T04:34:08.032Z,15.05
2024-05-09T04:35:07.967Z,15.04
2024-05-09T04:36:07.908Z,15.03
2024-05-09T04:37:07.925Z,15.02
2024-05-09T04:38:07.899Z,15.04
2024-05-09T04:39:07.888Z,15.04
2024-05-09T04:40:11.298Z,15.03
2024-05-09T04:41:07.931Z,15.06
2024-05-09T04:42:07.878Z,15.06
2024-05-09T04:43:07.826Z,15.00
2024-05-09T04:44:07.868Z,15.10
2024-05-09T04:45:07.813Z,15.06
2024-05-09T04:46:07.793Z,15.10
2024-05-09T04:47:07.852Z,15.12
2024-05-09T04:48:08.020Z,15.11
2024-05-09T04:49:07.854Z,15.12
2024-05-09T04:50:11.532Z,15.16
2024-05-09T04:51:07.850Z,15.20
2024-05-09T04:52:07.732Z,15.22
2024-05-09T04:53:09.265Z,15.27
2024-05-09T04:54:10.721Z,15.28
2024-05-09T04:55:07.717Z,15.26
2024-05-09T04:56:07.723Z,15.22
2024-05-09T04:57:07.677Z,15.26
2024-05-09T04:58:07.703Z,15.23
2024-05-09T04:59:07.776Z,15.20
2024-05-09T05:00:14.502Z,15.16
2024-05-09T05:01:07.653Z,15.14
2024-05-09T05:02:07.694Z,15.08
2024-05-09T05:03:08.762Z,15.04
2024-05-09T05:04:07.656Z,15.01
2024-05-09T05:05:07.689Z,15.00
2024-05-09T05:06:07.705Z,14.97
2024-05-09T05:07:07.581Z,14.94
2024-05-09T05:08:07.583Z,14.89
2024-05-09T05:09:07.574Z,14.84
2024-05-09T05:10:09.370Z,14.87
2024-05-09T05:11:07.641Z,14.90
2024-05-09T05:12:07.653Z,14.92
2024-05-09T05:13:07.516Z,14.92
2024-05-09T05:14:07.605Z,14.94
2024-05-09T05:15:07.508Z,14.94
2024-05-09T05:16:07.498Z,14.94
2024-05-09T05:17:07.537Z,14.94
2024-05-09T05:18:07.613Z,14.98
2024-05-09T05:19:10.824Z,15.01
2024-05-09T05:20:08.747Z,15.02
2024-05-09T05:21:07.455Z,15.07
2024-05-09T05:22:07.451Z,15.14
2024-05-09T05:23:07.531Z,15.12
2024-05-09T05:24:07.441Z,15.12
2024-05-09T05:25:07.408Z,15.26
2024-05-09T05:26:07.432Z,15.40
2024-05-09T05:27:07.362Z,15.56
2024-05-09T05:28:07.344Z,15.67
2024-05-09T05:29:07.398Z,15.75
2024-05-09T05:30:12.023Z,15.79
2024-05-09T05:31:07.350Z,15.84
2024-05-09T05:32:07.387Z,15.99
2024-05-09T05:33:07.609Z,16.27
2024-05-09T05:34:07.396Z,16.52
2024-05-09T05:35:07.306Z,16.82
2024-05-09T05:36:07.276Z,16.91
2024-05-09T05:37:07.286Z,17.08
2024-05-09T05:38:07.325Z,17.17
2024-05-09T05:39:07.278Z,17.40
2024-05-09T05:40:09.391Z,17.58
2024-05-09T05:41:07.249Z,17.67
2024-05-09T05:42:07.227Z,17.85
2024-05-09T05:43:07.197Z,18.10
2024-05-09T05:44:07.271Z,18.32
2024-05-09T05:45:09.651Z,18.25
2024-05-09T05:46:07.165Z,18.32
2024-05-09T05:47:07.183Z,18.32
2024-05-09T05:48:07.826Z,18.45
2024-05-09T05:49:07.214Z,18.48
2024-05-09T05:50:14.466Z,18.59
2024-05-09T05:51:07.197Z,18.58
2024-05-09T05:52:07.100Z,18.59
2024-05-09T05:53:08.260Z,18.61
2024-05-09T05:54:07.122Z,18.66
2024-05-09T05:55:07.085Z,18.84
2024-05-09T05:56:07.166Z,19.07
2024-05-09T05:57:07.118Z,19.42
2024-05-09T05:58:07.044Z,19.83
2024-05-09T05:59:07.084Z,20.02
2024-05-09T06:00:09.608Z,20.09
2024-05-09T06:01:07.035Z,19.96
2024-05-09T06:02:07.148Z,19.88
2024-05-09T06:03:07.170Z,19.83
2024-05-09T06:04:07.023Z,19.83
2024-05-09T06:05:07.056Z,20.06
2024-05-09T06:06:07.042Z,20.57
2024-05-09T06:07:07.016Z,21.26
2024-05-09T06:08:07.102Z,22.20
2024-05-09T06:09:06.920Z,21.83
2024-05-09T06:10:11.462Z,21.34
2024-05-09T06:11:06.978Z,21.26
2024-05-09T06:12:06.973Z,19.55
2024-05-09T06:13:06.911Z,17.32
2024-05-09T06:14:06.924Z,15.59
2024-05-09T06:15:06.866Z,13.97
2024-05-09T06:16:06.852Z,12.56
2024-05-09T06:17:06.986Z,11.81
2024-05-09T06:18:07.103Z,10.79
2024-05-09T06:19:06.937Z,9.94
2024-05-09T06:20:13.287Z,9.46
2024-05-09T06:21:06.846Z,9.34
2024-05-09T06:22:06.791Z,8.72
2024-05-09T06:23:07.170Z,8.49
2024-05-09T06:24:06.870Z,8.11
2024-05-09T06:25:06.780Z,7.84
2024-05-09T06:26:06.744Z,7.74
2024-05-09T06:27:06.797Z,7.47
2024-05-09T06:28:06.839Z,7.30
2024-05-09T06:29:06.792Z,7.26
2024-05-09T06:30:09.877Z,7.42
2024-05-09T06:31:06.709Z,7.59
2024-05-09T06:32:06.826Z,8.22
2024-05-09T06:33:06.872Z,8.76
2024-05-09T06:34:06.759Z,9.32
2024-05-09T06:35:06.800Z,10.16
2024-05-09T06:36:06.636Z,10.91
2024-05-09T06:37:06.625Z,11.62
2024-05-09T06:38:06.691Z,12.12
2024-05-09T06:39:06.622Z,12.92
2024-05-09T06:40:07.616Z,13.75
2024-05-09T06:41:06.665Z,14.29
2024-05-09T06:42:06.599Z,14.83
2024-05-09T06:43:06.559Z,16.27
2024-05-09T06:44:06.590Z,16.22
2024-05-09T06:45:06.578Z,15.20
2024-05-09T06:46:06.560Z,13.66
2024-05-09T06:47:06.673Z,14.65
2024-05-09T06:48:06.818Z,15.90
2024-05-09T06:49:06.644Z,16.68
2024-05-09T06:50:13.098Z,18.03
2024-05-09T06:51:06.538Z,20.02
2024-05-09T06:52:06.450Z,23.11
2024-05-09T06:53:06.654Z,26.17
2024-05-09T06:54:06.512Z,31.28
2024-05-09T06:55:06.438Z,39.28
2024-05-09T06:56:06.432Z,47.10
2024-05-09T06:57:06.461Z,51.94
2024-05-09T06:58:06.702Z,52.24
2024-05-09T06:59:06.451Z,52.53
2024-05-09T07:01:06.429Z,54.55
2024-05-09T07:02:06.475Z,56.62
2024-05-09T07:03:06.503Z,58.68
2024-05-09T07:04:06.532Z,59.22
2024-05-09T07:05:06.506Z,55.78
2024-05-09T07:06:06.389Z,54.51
2024-05-09T07:07:06.376Z,52.43
2024-05-09T07:08:06.348Z,54.13
2024-05-09T07:09:06.290Z,60.85
2024-05-09T07:10:09.929Z,67.96
2024-05-09T07:11:06.339Z,71.14
2024-05-09T07:12:06.380Z,68.07
2024-05-09T07:13:06.234Z,60.76
2024-05-09T07:14:06.333Z,52.33
2024-05-09T07:15:06.232Z,45.36
2024-05-09T07:16:06.271Z,41.13
2024-05-09T07:17:06.388Z,37.29
2024-05-09T07:18:06.420Z,33.83
2024-05-09T07:19:06.412Z,36.35
2024-05-09T07:20:08.990Z,41.83
2024-05-09T07:21:06.270Z,39.96
2024-05-09T07:22:06.128Z,35.31
2024-05-09T07:23:06.189Z,35.22
2024-05-09T07:24:06.137Z,38.21
2024-05-09T07:25:06.112Z,42.73
2024-05-09T07:26:06.139Z,46.32
2024-05-09T07:27:06.189Z,49.08
2024-05-09T07:28:06.100Z,52.53
2024-05-09T07:29:06.156Z,52.93
2024-05-09T07:30:07.335Z,49.67
2024-05-09T07:31:06.067Z,48.80
2024-05-09T07:32:06.123Z,46.94
2024-05-09T07:33:06.288Z,57.75
2024-05-09T07:34:06.154Z,72.12
2024-05-09T07:35:06.081Z,77.67
2024-05-09T07:36:05.999Z,86.94
2024-05-09T07:37:06.009Z,100.00
2024-05-09T07:38:06.089Z,113.25
2024-05-09T07:39:05.974Z,115.52
2024-05-09T07:40:07.615Z,94.26
2024-05-09T07:41:06.016Z,94.60
2024-05-09T07:42:05.962Z,85.52
2024-05-09T07:43:05.918Z,97.21
2024-05-09T07:44:05.969Z,113.48
2024-05-09T07:45:21.564Z,129.95
2024-05-09T07:47:04.509Z,148.62
2024-05-09T07:50:00.952Z,169.53
2024-05-09T07:53:21.098Z,168.00
2024-05-09T07:53:47.536Z,171.62
2024-05-09T07:53:59.565Z,157.13
2024-05-09T07:54:54.856Z,125.00
2024-05-09T07:55:55.254Z,107.03
2024-05-09T07:56:55.207Z,102.95
2024-05-09T07:57:54.692Z,93.23
2024-05-09T07:58:54.769Z,88.69
2024-05-09T07:59:54.633Z,94.28
2024-05-09T08:00:54.874Z,96.38
2024-05-09T08:01:54.739Z,98.12
2024-05-09T08:02:54.625Z,106.75
2024-05-09T08:03:54.864Z,115.36
2024-05-09T08:04:54.721Z,122.62
2024-05-09T08:05:54.667Z,129.44
2024-05-09T08:06:54.649Z,138.89
2024-05-09T08:07:54.592Z,148.76
2024-05-09T08:08:54.585Z,151.72
2024-05-09T08:09:54.582Z,156.40
2024-05-09T08:10:54.595Z,160.44
2024-05-09T08:11:54.541Z,175.21
2024-05-09T08:12:54.544Z,173.40
2024-05-09T08:13:54.497Z,164.05
2024-05-09T08:14:54.519Z,161.52
2024-05-09T08:15:54.485Z,160.13
2024-05-09T08:16:54.559Z,169.02
2024-05-09T08:17:54.715Z,189.32
2024-05-09T08:18:54.512Z,206.93
2024-05-09T08:19:54.446Z,217.88
2024-05-09T08:20:54.407Z,217.88
2024-05-09T08:21:54.443Z,225.79
2024-05-09T08:22:54.384Z,240.47
2024-05-09T08:23:54.399Z,254.79
2024-05-09T08:24:54.444Z,268.28
2024-05-09T08:25:54.370Z,269.38
2024-05-09T08:26:54.365Z,268.72
2024-05-09T08:27:54.378Z,259.82
2024-05-09T08:28:54.345Z,267.63
2024-05-09T08:29:54.361Z,279.44
2024-05-09T08:30:54.428Z,283.28
2024-05-09T08:31:54.350Z,271.83
2024-05-09T08:32:54.370Z,269.60
2024-05-09T08:33:54.467Z,271.83
2024-05-09T08:34:54.384Z,298.70
2024-05-09T08:35:54.276Z,324.29
2024-05-09T08:36:55.139Z,337.93
2024-05-09T08:37:54.286Z,341.08
2024-05-09T08:38:54.216Z,365.29
2024-05-09T08:39:54.240Z,384.67
2024-05-09T08:40:54.272Z,378.58
2024-05-09T08:41:54.187Z,338.97
2024-05-09T08:42:54.244Z,341.08
2024-05-09T08:43:54.193Z,367.74
2024-05-09T08:44:54.162Z,394.19
2024-05-09T08:45:54.250Z,414.19
2024-05-09T08:46:54.176Z,423.63
2024-05-09T08:47:54.177Z,453.17
2024-05-09T08:48:54.238Z,467.41
2024-05-09T08:49:54.153Z,476.05
2024-05-09T08:50:54.195Z,478.43
2024-05-09T08:51:54.211Z,484.67
2024-05-09T08:52:54.084Z,480.49
2024-05-09T08:53:54.066Z,487.85
2024-05-09T08:54:54.304Z,500.99
2024-05-09T08:55:54.042Z,507.84
2024-05-09T08:56:54.051Z,576.02
2024-05-09T08:57:54.110Z,678.15
2024-05-09T08:58:54.002Z,742.88
2024-05-09T08:59:54.004Z,759.21
2024-05-09T09:00:54.111Z,705.30
2024-05-09T09:01:54.063Z,694.33
2024-05-09T09:02:54.001Z,702.34
2024-05-09T09:03:54.213Z,731.51
2024-05-09T09:04:54.019Z,845.96
2024-05-09T09:05:54.015Z,907.24
2024-05-09T09:06:56.339Z,881.58
2024-05-09T09:07:53.922Z,865.07
2024-05-09T09:08:53.962Z,813.11
2024-05-09T09:09:53.907Z,803.36
2024-05-09T09:10:53.904Z,775.91
2024-05-09T09:11:53.997Z,806.26
2024-05-09T09:12:53.904Z,822.59
2024-05-09T09:13:53.866Z,852.42
2024-05-09T09:14:53.878Z,888.59
2024-05-09T09:15:53.878Z,897.52
2024-05-09T09:16:53.862Z,1050.16
2024-05-09T09:17:53.930Z,1141.40
2024-05-09T09:18:54.063Z,1186.89
2024-05-09T09:19:53.909Z,1174.41
2024-05-09T09:20:53.827Z,1177.50
2024-05-09T09:21:53.899Z,1191.11
2024-05-09T09:22:53.782Z,1338.66
2024-05-09T09:23:53.802Z,1289.70
2024-05-09T09:24:53.828Z,1221.51
2024-05-09T09:25:53.840Z,1203.95
2024-05-09T09:26:53.779Z,1245.35
2024-05-09T09:27:53.794Z,1293.44
2024-05-09T09:28:53.779Z,1214.87
2024-05-09T09:29:53.758Z,1329.36
2024-05-09T09:30:53.816Z,1409.04
2024-05-09T09:31:53.670Z,1464.48
2024-05-09T09:32:53.720Z,1548.24
2024-05-09T09:33:54.067Z,1530.55
2024-05-09T09:34:53.711Z,1567.25
2024-05-09T09:35:53.625Z,1614.46
2024-05-09T09:36:53.664Z,1635.14
2024-05-09T09:37:53.625Z,1755.07
2024-05-09T09:38:53.638Z,1777.19
2024-05-09T09:39:53.685Z,1803.50
2024-05-09T09:40:53.661Z,1804.71
2024-05-09T09:41:53.566Z,1677.10
2024-05-09T09:42:53.550Z,1740.26
2024-05-09T09:43:53.518Z,1857.24
2024-05-09T09:45:02.118Z,1966.25
2024-05-09T09:45:54.034Z,1970.59
2024-05-09T09:46:53.518Z,1957.63
2024-05-09T09:47:53.740Z,1935.02
2024-05-09T09:48:53.586Z,2001.49
2024-05-09T09:49:53.508Z,2024.17
2024-05-09T09:50:53.475Z,1986.66
2024-05-09T09:51:53.505Z,1915.65
2024-05-09T09:52:53.436Z,1836.87
2024-05-09T09:53:53.454Z,1731.27
2024-05-09T09:54:53.475Z,1721.26
2024-05-09T09:55:53.390Z,1660.47
2024-05-09T09:56:53.396Z,1615.43
2024-05-09T09:57:53.502Z,1716.85
2024-05-09T09:58:53.401Z,1824.37
2024-05-09T09:59:53.377Z,1895.33
2024-05-09T10:00:53.437Z,1992.56
2024-05-09T10:01:53.414Z,2106.92
2024-05-09T10:02:53.352Z,2328.41
2024-05-09T10:03:53.514Z,2390.72
2024-05-09T10:04:53.503Z,2438.58
2024-05-09T10:05:53.372Z,2474.61
2024-05-09T10:06:53.361Z,2754.37
2024-05-09T10:07:53.282Z,3026.54
2024-05-09T10:08:53.280Z,3254.40
2024-05-09T10:09:53.314Z,3401.01
2024-05-09T10:10:53.374Z,3101.85
2024-05-09T10:11:59.698Z,2954.80
2024-05-09T10:12:53.317Z,2829.99
2024-05-09T10:13:53.225Z,2971.18
2024-05-09T10:14:53.259Z,3186.68
2024-05-09T10:15:53.856Z,3451.38
2024-05-09T10:16:53.183Z,3530.96
2024-05-09T10:17:53.361Z,3442.52
2024-05-09T10:18:53.436Z,3489.58
2024-05-09T10:19:53.223Z,3607.00
2024-05-09T10:20:53.148Z,3592.49
2024-05-09T10:21:53.177Z,3462.53
2024-05-09T10:22:53.120Z,3350.00
2024-05-09T10:23:53.135Z,3312.73
2024-05-09T10:24:53.222Z,3658.70
2024-05-09T10:25:53.143Z,3903.86
2024-05-09T10:26:53.071Z,3533.29
2024-05-09T10:27:53.179Z,3105.45
2024-05-09T10:28:53.060Z,3209.58
2024-05-09T10:29:53.081Z,3207.66
2024-05-09T10:30:53.162Z,3335.41
2024-05-09T10:31:53.108Z,3526.31
2024-05-09T10:32:53.147Z,3796.03
2024-05-09T10:33:53.427Z,4113.58
2024-05-09T10:34:53.065Z,4277.73
2024-05-09T10:35:53.008Z,4155.04
2024-05-09T10:36:53.162Z,4113.58
2024-05-09T10:37:52.983Z,3982.17
2024-05-09T10:38:53.071Z,3918.13
2024-05-09T10:39:53.084Z,4113.58
2024-05-09T10:40:52.994Z,4270.92
2024-05-09T10:41:52.935Z,4217.15
2024-05-09T10:42:53.029Z,4123.08
2024-05-09T10:43:52.974Z,4126.25
2024-05-09T10:44:52.916Z,4364.82
2024-05-09T10:45:53.014Z,4333.06
2024-05-09T10:46:52.927Z,4194.05
2024-05-09T10:47:53.111Z,4329.56
2024-05-09T10:48:52.932Z,4119.91
2024-05-09T10:49:52.952Z,4082.25
2024-05-09T10:50:52.875Z,4113.58
2024-05-09T10:51:52.916Z,3976.26
2024-05-09T10:52:52.790Z,3820.38
2024-05-09T10:53:52.798Z,3636.36
2024-05-09T10:54:52.876Z,3542.63
2024-05-09T10:55:52.846Z,3526.31
2024-05-09T10:56:52.755Z,3318.89
2024-05-09T10:57:52.815Z,3073.39
2024-05-09T10:58:52.732Z,2981.09
2024-05-09T10:59:52.741Z,2845.01
2024-05-09T11:00:52.794Z,2794.58
2024-05-09T11:01:52.809Z,2745.90
2024-05-09T11:02:52.748Z,2734.69
2024-05-09T11:03:52.883Z,2731.91
2024-05-09T11:04:52.774Z,2945.05
2024-05-09T11:05:52.803Z,2913.04
2024-05-09T11:06:52.729Z,2961.33
2024-05-09T11:07:52.649Z,2987.74
2024-05-09T11:08:52.635Z,3339.56
2024-05-09T11:09:52.679Z,3401.01
2024-05-09T11:10:52.783Z,3673.75
2024-05-09T11:11:52.689Z,3875.63
2024-05-09T11:12:52.727Z,3614.29
2024-05-09T11:13:52.599Z,3424.92
2024-05-09T11:14:52.574Z,3298.46
2024-05-09T11:15:52.612Z,3152.94
2024-05-09T11:16:52.581Z,3042.00
2024-05-09T11:17:52.756Z,3011.24
2024-05-09T11:18:52.833Z,2954.80
2024-05-09T11:19:52.624Z,2925.76
2024-05-09T11:20:52.504Z,2922.57
2024-05-09T11:21:52.596Z,2737.49
2024-05-09T11:22:52.528Z,2650.84
2024-05-09T11:23:52.498Z,2709.81
2024-05-09T11:24:52.644Z,2723.58
2024-05-09T11:25:52.431Z,2612.09
2024-05-09T11:26:52.511Z,2777.20
2024-05-09T11:27:52.492Z,2894.17
2024-05-09T11:28:52.424Z,2997.76
2024-05-09T11:29:52.447Z,2987.74
2024-05-09T11:30:52.491Z,2774.33
2024-05-09T11:31:52.419Z,2698.89
2024-05-09T11:32:52.496Z,2835.98
2024-05-09T11:33:52.511Z,2835.98
2024-05-09T11:34:52.369Z,2919.39
2024-05-09T11:35:52.372Z,2860.19
2024-05-09T11:36:52.366Z,2821.05
2024-05-09T11:37:52.346Z,2971.18
2024-05-09T11:38:52.350Z,2932.17
2024-05-09T11:39:52.384Z,2875.54
2024-05-09T11:40:52.353Z,2951.54
2024-05-09T11:41:52.292Z,2941.82
2024-05-09T11:42:53.485Z,3181.01
2024-05-09T11:43:52.326Z,3339.56
2024-05-09T11:44:52.235Z,3500.98
2024-05-09T11:45:52.297Z,3626.52
2024-05-09T11:46:52.241Z,3485.04
2024-05-09T11:47:52.312Z,3587.68
2024-05-09T11:48:52.306Z,3777.31
2024-05-09T11:49:52.259Z,3706.78
2024-05-09T11:50:52.200Z,3418.37
2024-05-09T11:51:52.243Z,3207.66
2024-05-09T11:52:52.185Z,3125.36
2024-05-09T11:53:52.176Z,3057.61
2024-05-09T11:54:52.183Z,3069.87
2024-05-09T11:55:52.187Z,3392.41
2024-05-09T11:56:52.130Z,3431.50
2024-05-09T11:57:52.194Z,3416.19
2024-05-09T11:58:52.118Z,3666.21
2024-05-09T11:59:52.113Z,3809.52
2024-05-09T12:00:52.244Z,3656.21
2024-05-09T12:01:52.191Z,3392.41
2024-05-09T12:02:52.127Z,3368.95
2024-05-09T12:03:52.429Z,3500.98
2024-05-09T12:04:52.119Z,3691.46
2024-05-09T12:05:52.228Z,4002.99
2024-05-09T12:06:52.087Z,4123.08
2024-05-09T12:07:52.009Z,4017.99
2024-05-09T12:08:52.013Z,3961.57
2024-05-09T12:09:52.028Z,3735.19
2024-05-09T12:10:52.144Z,3537.95
2024-05-09T12:11:51.994Z,3678.79
2024-05-09T12:12:52.038Z,3748.25
2024-05-09T12:13:51.950Z,3709.34
2024-05-09T12:14:51.939Z,3678.79
2024-05-09T12:15:51.993Z,3547.32
2024-05-09T12:16:51.987Z,3530.96
2024-05-09T12:17:51.984Z,3658.70
2024-05-09T12:18:52.040Z,3711.91
2024-05-09T12:19:51.915Z,3793.35
2024-05-09T12:20:51.913Z,4048.34
2024-05-09T12:21:51.914Z,4171.21
2024-05-09T12:22:51.852Z,4429.75
2024-05-09T12:23:51.881Z,4459.23
2024-05-09T12:24:51.879Z,4270.92
2024-05-09T12:25:51.849Z,4305.22
2024-05-09T12:26:51.826Z,4011.98
2024-05-09T12:27:51.860Z,3735.19
2024-05-09T12:28:51.862Z,3719.64
2024-05-09T12:29:51.780Z,3638.83
2024-05-09T12:30:51.808Z,3909.55
2024-05-09T12:31:51.828Z,4462.95
2024-05-09T12:32:51.809Z,4764.44
2024-05-09T12:33:51.989Z,4689.41
2024-05-09T12:34:51.762Z,4632.67
2024-05-09T12:35:51.733Z,4751.77
2024-05-09T12:36:51.757Z,4477.86
2024-05-09T12:37:51.719Z,4350.65
2024-05-09T12:38:51.729Z,4281.15
2024-05-09T12:39:51.760Z,4550.08
2024-05-09T12:40:51.842Z,4995.34
2024-05-09T12:41:51.687Z,4886.05